CZFN

Details ICAO CZFN (ZFN)
Name Tulita
Region Canada
Timezone America/Yellowknife (UTC-7.0)
Plans Departing 2
Arriving 3
Stats Elevation 332 ft / 101 m (AMSL)
Location 64.909540° -125.572600°
Runways 1
Magnetic Variation 20.811° E
Sunrise 2017-12-14 18:25:02 UTC / 2017-12-14 11:25:02 Local
Sunset 2017-12-14 22:12:02 UTC / 2017-12-14 15:12:02 Local
Advertisement - Login to hide

Runways

ID Width Length Bearing (true) Bearing (mag) Surface Threshold Offset Overrun Length
05 98 ft / 30 m 3,003 ft / 915 m 83.99° 63.18° Gravel 0 ft / 0 m 0 ft / 0 m
23 98 ft / 30 m 3,003 ft / 915 m 264.01° 243.20° Gravel 0 ft / 0 m 0 ft / 0 m

Map

Weather


0- 5 10 15 20 25 30 35+ Temperature / ° C

Clouds and Precipitation
Forecast for 2017-12-15 00:00 UTC. Updated 2 hours ago

Ground ~20,000 ft ~40,000 ft Winds

METAR

CZFN 142200Z 03009KT 10SM BKN015 OVC071 M09/M11 A2967 RMK SC7AC1 SLP059

TAF

Not found

Frequencies

Unicom 122.10 MHz Tulita Traffic Multicom
Warning: Do not use this data for real-world aviation or navigation. No guarantee of current accuracy is given.